sensor_id;sensor_type;location;lat;lon;timestamp;pressure;altitude;pressure_sealevel;temperature;humidity
66430;BME280;53242;51.694;10.006;2023-10-19T00:00:28;97989.19;;;7.79;87.32
66430;BME280;53242;51.694;10.006;2023-10-19T00:02:55;97969.28;;;7.89;86.97
66430;BME280;53242;51.694;10.006;2023-10-19T00:05:18;97964.84;;;7.65;89.75
66430;BME280;53242;51.694;10.006;2023-10-19T00:07:40;97959.19;;;7.68;88.04
66430;BME280;53242;51.694;10.006;2023-10-19T00:10:04;97953.94;;;7.68;88.98
66430;BME280;53242;51.694;10.006;2023-10-19T00:12:26;97946.25;;;7.66;89.00
66430;BME280;53242;51.694;10.006;2023-10-19T00:14:50;97929.91;;;7.64;89.36
66430;BME280;53242;51.694;10.006;2023-10-19T00:17:12;97935.34;;;7.69;89.73
66430;BME280;53242;51.694;10.006;2023-10-19T00:19:37;97934.16;;;7.65;89.52
66430;BME280;53242;51.694;10.006;2023-10-19T00:22:04;97934.66;;;7.74;89.32
66430;BME280;53242;51.694;10.006;2023-10-19T00:24:31;97927.69;;;7.68;88.76
66430;BME280;53242;51.694;10.006;2023-10-19T00:26:53;97919.09;;;7.54;89.88
66430;BME280;53242;51.694;10.006;2023-10-19T00:29:17;97918.97;;;7.67;89.57
66430;BME280;53242;51.694;10.006;2023-10-19T00:31:53;97913.34;;;7.64;90.36
66430;BME280;53242;51.694;10.006;2023-10-19T00:34:16;97921.28;;;7.57;90.24
66430;BME280;53242;51.694;10.006;2023-10-19T00:36:38;97907.69;;;7.67;90.49
66430;BME280;53242;51.694;10.006;2023-10-19T00:39:01;97910.88;;;7.69;90.04
66430;BME280;53242;51.694;10.006;2023-10-19T00:41:35;97898.47;;;7.57;91.80
66430;BME280;53242;51.694;10.006;2023-10-19T00:43:59;97907.69;;;7.67;91.64
66430;BME280;53242;51.694;10.006;2023-10-19T00:46:26;97898.09;;;7.54;92.15
66430;BME280;53242;51.694;10.006;2023-10-19T00:48:56;97884.03;;;7.67;91.64
66430;BME280;53242;51.694;10.006;2023-10-19T00:51:36;97890.91;;;7.68;90.53
66430;BME280;53242;51.694;10.006;2023-10-19T00:54:03;97890.75;;;7.63;91.92
66430;BME280;53242;51.694;10.006;2023-10-19T00:56:30;97879.88;;;7.59;90.55
66430;BME280;53242;51.694;10.006;2023-10-19T00:58:54;97870.22;;;7.53;91.95
66430;BME280;53242;51.694;10.006;2023-10-19T01:01:26;97865.44;;;7.43;92.79
66430;BME280;53242;51.694;10.006;2023-10-19T01:03:50;97861.50;;;7.59;91.31
66430;BME280;53242;51.694;10.006;2023-10-19T01:06:19;97849.91;;;7.67;92.35
66430;BME280;53242;51.694;10.006;2023-10-19T01:08:42;97846.28;;;7.68;92.75
66430;BME280;53242;51.694;10.006;2023-10-19T01:11:05;97845.97;;;7.57;93.21
66430;BME280;53242;51.694;10.006;2023-10-19T01:13:27;97844.03;;;7.46;93.19
66430;BME280;53242;51.694;10.006;2023-10-19T01:15:50;97826.59;;;7.52;93.35
66430;BME280;53242;51.694;10.006;2023-10-19T01:18:14;97825.06;;;7.44;93.93
66430;BME280;53242;51.694;10.006;2023-10-19T01:20:39;97824.44;;;7.49;94.46
66430;BME280;53242;51.694;10.006;2023-10-19T01:23:12;97811.88;;;7.51;92.93
66430;BME280;53242;51.694;10.006;2023-10-19T01:25:52;97812.25;;;7.54;93.49
66430;BME280;53242;51.694;10.006;2023-10-19T01:28:18;97793.94;;;7.48;94.21
66430;BME280;53242;51.694;10.006;2023-10-19T01:30:40;97786.06;;;7.48;94.65
66430;BME280;53242;51.694;10.006;2023-10-19T01:33:04;97808.38;;;7.57;93.79
66430;BME280;53242;51.694;10.006;2023-10-19T01:35:34;97805.19;;;7.55;95.19
66430;BME280;53242;51.694;10.006;2023-10-19T01:38:16;97809.97;;;7.39;94.28
66430;BME280;53242;51.694;10.006;2023-10-19T01:40:38;97809.41;;;7.56;94.43
66430;BME280;53242;51.694;10.006;2023-10-19T01:43:08;97812.31;;;7.48;94.44
66430;BME280;53242;51.694;10.006;2023-10-19T01:45:30;97802.06;;;7.65;93.69
66430;BME280;53242;51.694;10.006;2023-10-19T01:47:53;97804.59;;;7.53;94.58
66430;BME280;53242;51.694;10.006;2023-10-19T01:50:16;97795.25;;;7.57;94.90
66430;BME280;53242;51.694;10.006;2023-10-19T01:52:42;97783.75;;;7.58;93.74
66430;BME280;53242;51.694;10.006;2023-10-19T01:55:07;97783.81;;;7.70;94.63
66430;BME280;53242;51.694;10.006;2023-10-19T01:57:31;97784.84;;;7.69;94.18
66430;BME280;53242;51.694;10.006;2023-10-19T01:59:53;97781.28;;;7.63;95.47
66430;BME280;53242;51.694;10.006;2023-10-19T02:02:16;97773.47;;;7.56;95.87
66430;BME280;53242;51.694;10.006;2023-10-19T02:04:38;97777.84;;;7.63;95.25
66430;BME280;53242;51.694;10.006;2023-10-19T02:07:03;97784.50;;;7.65;95.67
66430;BME280;53242;51.694;10.006;2023-10-19T02:09:25;97788.91;;;7.65;95.38
66430;BME280;53242;51.694;10.006;2023-10-19T02:11:52;97772.53;;;7.69;94.76
66430;BME280;53242;51.694;10.006;2023-10-19T02:14:17;97786.28;;;7.65;94.13
66430;BME280;53242;51.694;10.006;2023-10-19T02:19:05;97751.91;;;7.73;94.72
66430;BME280;53242;51.694;10.006;2023-10-19T02:21:27;97764.34;;;7.78;94.72
66430;BME280;53242;51.694;10.006;2023-10-19T02:23:53;97770.28;;;7.73;95.34
66430;BME280;53242;51.694;10.006;2023-10-19T02:26:17;97762.75;;;7.77;94.98
66430;BME280;53242;51.694;10.006;2023-10-19T02:28:42;97769.16;;;7.62;95.76
66430;BME280;53242;51.694;10.006;2023-10-19T02:31:06;97760.34;;;7.75;95.43
66430;BME280;53242;51.694;10.006;2023-10-19T02:33:38;97760.91;;;7.58;95.39
66430;BME280;53242;51.694;10.006;2023-10-19T02:36:01;97751.16;;;7.66;95.09
66430;BME280;53242;51.694;10.006;2023-10-19T02:38:25;97742.03;;;7.68;96.62
66430;BME280;53242;51.694;10.006;2023-10-19T02:40:48;97741.81;;;7.51;95.53
66430;BME280;53242;51.694;10.006;2023-10-19T02:43:10;97744.81;;;7.73;95.29
66430;BME280;53242;51.694;10.006;2023-10-19T02:45:34;97744.50;;;7.63;96.16
66430;BME280;53242;51.694;10.006;2023-10-19T02:47:58;97736.69;;;7.75;95.83
66430;BME280;53242;51.694;10.006;2023-10-19T02:50:20;97733.63;;;7.60;96.56
66430;BME280;53242;51.694;10.006;2023-10-19T02:52:45;97732.84;;;7.59;96.24
66430;BME280;53242;51.694;10.006;2023-10-19T02:55:08;97726.50;;;7.67;96.26
66430;BME280;53242;51.694;10.006;2023-10-19T02:57:31;97730.63;;;7.56;97.45
66430;BME280;53242;51.694;10.006;2023-10-19T02:59:54;97712.25;;;7.56;97.68
66430;BME280;53242;51.694;10.006;2023-10-19T03:02:16;97723.97;;;7.60;97.80
66430;BME280;53242;51.694;10.006;2023-10-19T03:04:40;97722.91;;;7.61;98.11
66430;BME280;53242;51.694;10.006;2023-10-19T03:07:04;97726.22;;;7.56;97.83
66430;BME280;53242;51.694;10.006;2023-10-19T03:09:27;97731.88;;;7.53;98.83
66430;BME280;53242;51.694;10.006;2023-10-19T03:11:49;97731.72;;;7.48;99.32
66430;BME280;53242;51.694;10.006;2023-10-19T03:14:15;97720.13;;;7.56;99.56
66430;BME280;53242;51.694;10.006;2023-10-19T03:16:38;97724.38;;;7.57;97.59
66430;BME280;53242;51.694;10.006;2023-10-19T03:19:04;97722.19;;;7.54;97.68
66430;BME280;53242;51.694;10.006;2023-10-19T03:21:26;97729.78;;;7.44;98.90
66430;BME280;53242;51.694;10.006;2023-10-19T03:23:50;97724.69;;;7.49;98.55
66430;BME280;53242;51.694;10.006;2023-10-19T03:26:12;97721.75;;;7.57;98.41
66430;BME280;53242;51.694;10.006;2023-10-19T03:28:52;97716.13;;;7.53;98.60
66430;BME280;53242;51.694;10.006;2023-10-19T03:31:18;97711.47;;;7.55;98.76
66430;BME280;53242;51.694;10.006;2023-10-19T03:33:44;97701.75;;;7.56;98.00
66430;BME280;53242;51.694;10.006;2023-10-19T03:36:06;97705.78;;;7.58;99.22
66430;BME280;53242;51.694;10.006;2023-10-19T03:38:35;97705.28;;;7.50;99.05
66430;BME280;53242;51.694;10.006;2023-10-19T03:41:00;97701.06;;;7.49;99.01
66430;BME280;53242;51.694;10.006;2023-10-19T03:43:29;97694.72;;;7.56;99.61
66430;BME280;53242;51.694;10.006;2023-10-19T03:45:51;97688.00;;;7.61;99.90
66430;BME280;53242;51.694;10.006;2023-10-19T03:48:18;97681.00;;;7.54;99.55
66430;BME280;53242;51.694;10.006;2023-10-19T03:50:49;97688.00;;;7.42;100.00
66430;BME280;53242;51.694;10.006;2023-10-19T03:53:14;97670.34;;;7.49;99.90
66430;BME280;53242;51.694;10.006;2023-10-19T03:55:37;97670.72;;;7.53;100.00
66430;BME280;53242;51.694;10.006;2023-10-19T03:58:00;97668.31;;;7.51;100.00
66430;BME280;53242;51.694;10.006;2023-10-19T04:00:23;97664.94;;;7.44;100.00
66430;BME280;53242;51.694;10.006;2023-10-19T04:02:51;97666.69;;;7.50;100.00
66430;BME280;53242;51.694;10.006;2023-10-19T04:05:18;97668.88;;;7.53;100.00
66430;BME280;53242;51.694;10.006;2023-10-19T04:07:44;97661.91;;;7.47;100.00
66430;BME280;53242;51.694;10.006;2023-10-19T04:10:07;97650.16;;;7.50;100.00
66430;BME280;53242;51.694;10.006;2023-10-19T04:12:30;97641.47;;;7.49;99.88
66430;BME280;53242;51.694;10.006;2023-10-19T04:14:58;97650.34;;;7.48;99.97
66430;BME280;53242;51.694;10.006;2023-10-19T04:17:31;97648.78;;;7.47;100.00
66430;BME280;53242;51.694;10.006;2023-10-19T04:19:53;97659.06;;;7.49;100.00
66430;BME280;53242;51.694;10.006;2023-10-19T04:22:18;97652.41;;;7.46;100.00
66430;BME280;53242;51.694;10.006;2023-10-19T04:24:46;97659.69;;;7.44;100.00
66430;BME280;53242;51.694;10.006;2023-10-19T04:27:09;97644.09;;;7.49;100.00
66430;BME280;53242;51.694;10.006;2023-10-19T04:29:35;97652.84;;;7.43;100.00
66430;BME280;53242;51.694;10.006;2023-10-19T04:31:57;97651.97;;;7.49;100.00
66430;BME280;53242;51.694;10.006;2023-10-19T04:34:21;97650.50;;;7.53;100.00
66430;BME280;53242;51.694;10.006;2023-10-19T04:36:44;97635.78;;;7.52;100.00
66430;BME280;53242;51.694;10.006;2023-10-19T04:39:06;97643.53;;;7.47;100.00
66430;BME280;53242;51.694;10.006;2023-10-19T04:41:34;97636.22;;;7.49;100.00
66430;BME280;53242;51.694;10.006;2023-10-19T04:43:57;97629.59;;;7.47;100.00
66430;BME280;53242;51.694;10.006;2023-10-19T04:46:20;97625.31;;;7.52;100.00
66430;BME280;53242;51.694;10.006;2023-10-19T04:48:43;97612.97;;;7.53;100.00
66430;BME280;53242;51.694;10.006;2023-10-19T04:51:06;97609.97;;;7.49;100.00
66430;BME280;53242;51.694;10.006;2023-10-19T04:53:31;97616.38;;;7.53;100.00
66430;BME280;53242;51.694;10.006;2023-10-19T04:55:53;97619.00;;;7.53;100.00
66430;BME280;53242;51.694;10.006;2023-10-19T04:58:16;97617.75;;;7.56;100.00
66430;BME280;53242;51.694;10.006;2023-10-19T05:00:39;97615.72;;;7.58;100.00
66430;BME280;53242;51.694;10.006;2023-10-19T05:03:01;97618.13;;;7.60;100.00
66430;BME280;53242;51.694;10.006;2023-10-19T05:05:24;97616.31;;;7.60;100.00
66430;BME280;53242;51.694;10.006;2023-10-19T05:07:46;97614.03;;;7.64;100.00
66430;BME280;53242;51.694;10.006;2023-10-19T05:10:10;97610.47;;;7.58;100.00
66430;BME280;53242;51.694;10.006;2023-10-19T05:12:33;97606.97;;;7.64;100.00
66430;BME280;53242;51.694;10.006;2023-10-19T05:14:55;97611.63;;;7.62;100.00
66430;BME280;53242;51.694;10.006;2023-10-19T05:17:18;97625.34;;;7.64;100.00
66430;BME280;53242;51.694;10.006;2023-10-19T05:19:43;97613.81;;;7.65;100.00
66430;BME280;53242;51.694;10.006;2023-10-19T05:22:08;97626.50;;;7.68;100.00
66430;BME280;53242;51.694;10.006;2023-10-19T05:24:30;97620.22;;;7.69;100.00
66430;BME280;53242;51.694;10.006;2023-10-19T05:26:53;97611.91;;;7.72;100.00
66430;BME280;53242;51.694;10.006;2023-10-19T05:29:16;97618.53;;;7.75;100.00
66430;BME280;53242;51.694;10.006;2023-10-19T05:31:38;97621.75;;;7.77;100.00
66430;BME280;53242;51.694;10.006;2023-10-19T05:34:01;97620.50;;;7.80;100.00
66430;BME280;53242;51.694;10.006;2023-10-19T05:36:24;97623.13;;;7.80;100.00
66430;BME280;53242;51.694;10.006;2023-10-19T05:38:47;97623.78;;;7.75;100.00
66430;BME280;53242;51.694;10.006;2023-10-19T05:41:09;97616.94;;;7.74;100.00
66430;BME280;53242;51.694;10.006;2023-10-19T05:43:33;97624.94;;;7.79;100.00
66430;BME280;53242;51.694;10.006;2023-10-19T05:45:56;97625.53;;;7.81;100.00
66430;BME280;53242;51.694;10.006;2023-10-19T05:48:20;97632.03;;;7.79;100.00
66430;BME280;53242;51.694;10.006;2023-10-19T05:50:42;97618.31;;;7.77;100.00
66430;BME280;53242;51.694;10.006;2023-10-19T05:53:05;97623.13;;;7.80;100.00
66430;BME280;53242;51.694;10.006;2023-10-19T05:55:28;97612.16;;;7.83;100.00
66430;BME280;53242;51.694;10.006;2023-10-19T05:57:51;97617.78;;;7.86;100.00
66430;BME280;53242;51.694;10.006;2023-10-19T06:00:13;97621.78;;;7.89;100.00
66430;BME280;53242;51.694;10.006;2023-10-19T06:02:36;97621.00;;;7.88;100.00
66430;BME280;53242;51.694;10.006;2023-10-19T06:04:58;97623.81;;;7.87;100.00
66430;BME280;53242;51.694;10.006;2023-10-19T06:07:21;97620.41;;;7.86;100.00
66430;BME280;53242;51.694;10.006;2023-10-19T06:09:44;97623.16;;;7.92;100.00
66430;BME280;53242;51.694;10.006;2023-10-19T06:12:06;97620.13;;;7.95;100.00
66430;BME280;53242;51.694;10.006;2023-10-19T06:14:31;97627.19;;;7.94;100.00
66430;BME280;53242;51.694;10.006;2023-10-19T06:16:53;97614.41;;;7.98;100.00
66430;BME280;53242;51.694;10.006;2023-10-19T06:19:16;97619.00;;;8.02;100.00
66430;BME280;53242;51.694;10.006;2023-10-19T06:21:39;97622.66;;;8.01;100.00
66430;BME280;53242;51.694;10.006;2023-10-19T06:24:02;97623.44;;;8.02;100.00
66430;BME280;53242;51.694;10.006;2023-10-19T06:26:25;97633.06;;;8.08;100.00
66430;BME280;53242;51.694;10.006;2023-10-19T06:28:47;97631.44;;;8.07;100.00
66430;BME280;53242;51.694;10.006;2023-10-19T06:31:09;97631.56;;;8.12;100.00
66430;BME280;53242;51.694;10.006;2023-10-19T06:33:32;97625.66;;;8.17;100.00
66430;BME280;53242;51.694;10.006;2023-10-19T06:35:58;97626.22;;;8.19;100.00
66430;BME280;53242;51.694;10.006;2023-10-19T06:38:21;97620.41;;;8.17;100.00
66430;BME280;53242;51.694;10.006;2023-10-19T06:40:44;97631.28;;;8.20;100.00
66430;BME280;53242;51.694;10.006;2023-10-19T06:43:06;97628.06;;;8.30;100.00
66430;BME280;53242;51.694;10.006;2023-10-19T06:45:28;97622.59;;;8.32;100.00
66430;BME280;53242;51.694;10.006;2023-10-19T06:47:54;97610.81;;;8.34;100.00
66430;BME280;53242;51.694;10.006;2023-10-19T06:50:18;97617.44;;;8.37;100.00
66430;BME280;53242;51.694;10.006;2023-10-19T06:52:43;97619.28;;;8.36;100.00
66430;BME280;53242;51.694;10.006;2023-10-19T06:55:08;97618.16;;;8.44;100.00
66430;BME280;53242;51.694;10.006;2023-10-19T06:57:35;97624.81;;;8.47;100.00
66430;BME280;53242;51.694;10.006;2023-10-19T06:59:58;97628.81;;;8.49;100.00
66430;BME280;53242;51.694;10.006;2023-10-19T07:02:21;97631.94;;;8.58;100.00
66430;BME280;53242;51.694;10.006;2023-10-19T07:04:43;97625.28;;;8.55;100.00
66430;BME280;53242;51.694;10.006;2023-10-19T07:07:06;97624.72;;;8.53;100.00
66430;BME280;53242;51.694;10.006;2023-10-19T07:09:28;97627.69;;;8.57;100.00
66430;BME280;53242;51.694;10.006;2023-10-19T07:11:51;97623.69;;;8.66;100.00
66430;BME280;53242;51.694;10.006;2023-10-19T07:14:16;97618.91;;;8.63;100.00
66430;BME280;53242;51.694;10.006;2023-10-19T07:16:40;97621.75;;;8.62;100.00
66430;BME280;53242;51.694;10.006;2023-10-19T07:19:03;97624.94;;;8.64;100.00
66430;BME280;53242;51.694;10.006;2023-10-19T07:21:27;97627.22;;;8.60;100.00
66430;BME280;53242;51.694;10.006;2023-10-19T07:23:52;97621.06;;;8.66;100.00
66430;BME280;53242;51.694;10.006;2023-10-19T07:26:15;97610.78;;;8.65;100.00
66430;BME280;53242;51.694;10.006;2023-10-19T07:28:38;97612.38;;;8.66;100.00
66430;BME280;53242;51.694;10.006;2023-10-19T07:31:02;97616.63;;;8.67;100.00
66430;BME280;53242;51.694;10.006;2023-10-19T07:33:25;97614.44;;;8.76;100.00
66430;BME280;53242;51.694;10.006;2023-10-19T07:35:49;97629.19;;;8.77;100.00
66430;BME280;53242;51.694;10.006;2023-10-19T07:38:22;97624.03;;;8.70;100.00
66430;BME280;53242;51.694;10.006;2023-10-19T07:40:46;97621.66;;;8.80;100.00
66430;BME280;53242;51.694;10.006;2023-10-19T07:43:08;97621.06;;;8.78;100.00
66430;BME280;53242;51.694;10.006;2023-10-19T07:45:32;97621.06;;;8.78;100.00
66430;BME280;53242;51.694;10.006;2023-10-19T07:47:54;97618.44;;;8.78;100.00
66430;BME280;53242;51.694;10.006;2023-10-19T07:50:16;97611.25;;;8.74;100.00
66430;BME280;53242;51.694;10.006;2023-10-19T07:52:39;97598.09;;;8.74;100.00
66430;BME280;53242;51.694;10.006;2023-10-19T07:55:01;97608.50;;;8.80;100.00
66430;BME280;53242;51.694;10.006;2023-10-19T07:57:24;97603.34;;;8.85;100.00
66430;BME280;53242;51.694;10.006;2023-10-19T07:59:47;97606.22;;;8.84;100.00
66430;BME280;53242;51.694;10.006;2023-10-19T08:02:09;97607.09;;;8.89;100.00
66430;BME280;53242;51.694;10.006;2023-10-19T08:04:32;97605.72;;;8.99;100.00
66430;BME280;53242;51.694;10.006;2023-10-19T08:06:54;97617.41;;;9.03;100.00
66430;BME280;53242;51.694;10.006;2023-10-19T08:09:17;97619.47;;;9.01;100.00
66430;BME280;53242;51.694;10.006;2023-10-19T08:11:45;97612.59;;;9.00;100.00
66430;BME280;53242;51.694;10.006;2023-10-19T08:14:08;97611.09;;;9.04;100.00
66430;BME280;53242;51.694;10.006;2023-10-19T08:16:30;97611.69;;;9.06;100.00
66430;BME280;53242;51.694;10.006;2023-10-19T08:18:53;97604.47;;;9.01;100.00
66430;BME280;53242;51.694;10.006;2023-10-19T08:21:16;97602.88;;;9.12;100.00
66430;BME280;53242;51.694;10.006;2023-10-19T08:23:40;97594.50;;;9.15;100.00
66430;BME280;53242;51.694;10.006;2023-10-19T08:26:03;97578.47;;;9.17;100.00
66430;BME280;53242;51.694;10.006;2023-10-19T08:28:27;97585.91;;;9.20;100.00
66430;BME280;53242;51.694;10.006;2023-10-19T08:30:50;97596.09;;;9.16;100.00
66430;BME280;53242;51.694;10.006;2023-10-19T08:33:18;97597.56;;;9.24;100.00
66430;BME280;53242;51.694;10.006;2023-10-19T08:35:42;97595.97;;;9.23;100.00
66430;BME280;53242;51.694;10.006;2023-10-19T08:38:04;97610.25;;;9.39;100.00
66430;BME280;53242;51.694;10.006;2023-10-19T08:40:33;97620.03;;;9.55;100.00
66430;BME280;53242;51.694;10.006;2023-10-19T08:42:56;97620.94;;;9.61;100.00
66430;BME280;53242;51.694;10.006;2023-10-19T08:45:18;97618.91;;;9.51;99.95
66430;BME280;53242;51.694;10.006;2023-10-19T08:47:54;97612.00;;;9.62;100.00
66430;BME280;53242;51.694;10.006;2023-10-19T08:50:19;97606.97;;;9.61;99.65
66430;BME280;53242;51.694;10.006;2023-10-19T08:52:45;97610.66;;;9.60;100.00
66430;BME280;53242;51.694;10.006;2023-10-19T08:55:08;97613.13;;;9.66;100.00
66430;BME280;53242;51.694;10.006;2023-10-19T08:57:32;97605.22;;;9.66;100.00
66430;BME280;53242;51.694;10.006;2023-10-19T08:59:54;97610.44;;;9.78;100.00
66430;BME280;53242;51.694;10.006;2023-10-19T09:02:20;97599.34;;;9.76;100.00
66430;BME280;53242;51.694;10.006;2023-10-19T09:04:43;97600.59;;;9.85;100.00
66430;BME280;53242;51.694;10.006;2023-10-19T09:07:06;97600.97;;;9.94;100.00
66430;BME280;53242;51.694;10.006;2023-10-19T09:09:33;97604.97;;;9.97;100.00
66430;BME280;53242;51.694;10.006;2023-10-19T09:11:55;97608.56;;;9.91;99.99
66430;BME280;53242;51.694;10.006;2023-10-19T09:14:31;97596.38;;;10.01;99.52
66430;BME280;53242;51.694;10.006;2023-10-19T09:16:56;97598.91;;;9.96;99.89
66430;BME280;53242;51.694;10.006;2023-10-19T09:19:19;97610.91;;;10.04;100.00
66430;BME280;53242;51.694;10.006;2023-10-19T09:21:42;97609.16;;;10.10;99.92
66430;BME280;53242;51.694;10.006;2023-10-19T09:24:04;97605.47;;;10.11;99.71
66430;BME280;53242;51.694;10.006;2023-10-19T09:26:27;97603.66;;;10.11;99.63
66430;BME280;53242;51.694;10.006;2023-10-19T09:28:51;97604.28;;;10.18;99.44
66430;BME280;53242;51.694;10.006;2023-10-19T09:31:13;97600.22;;;10.11;99.96
66430;BME280;53242;51.694;10.006;2023-10-19T09:33:40;97600.22;;;10.11;99.88
66430;BME280;53242;51.694;10.006;2023-10-19T09:36:03;97599.75;;;10.14;100.00
66430;BME280;53242;51.694;10.006;2023-10-19T09:38:35;97601.75;;;10.24;100.00
66430;BME280;53242;51.694;10.006;2023-10-19T09:40:57;97604.69;;;10.27;100.00
66430;BME280;53242;51.694;10.006;2023-10-19T09:43:49;97591.84;;;10.31;99.83
66430;BME280;53242;51.694;10.006;2023-10-19T09:46:37;97599.34;;;10.22;99.40
66430;BME280;53242;51.694;10.006;2023-10-19T09:48:59;97609.50;;;10.30;99.67
66430;BME280;53242;51.694;10.006;2023-10-19T09:51:22;97605.56;;;10.16;100.00
66430;BME280;53242;51.694;10.006;2023-10-19T09:54:17;97606.59;;;10.15;100.00
66430;BME280;53242;51.694;10.006;2023-10-19T09:56:46;97603.75;;;10.16;100.00
66430;BME280;53242;51.694;10.006;2023-10-19T09:59:16;97603.75;;;10.16;100.00
66430;BME280;53242;51.694;10.006;2023-10-19T10:02:11;97606.94;;;10.18;100.00
66430;BME280;53242;51.694;10.006;2023-10-19T10:04:37;97597.19;;;10.19;100.00
66430;BME280;53242;51.694;10.006;2023-10-19T10:06:59;97589.13;;;10.26;100.00
66430;BME280;53242;51.694;10.006;2023-10-19T10:09:25;97587.28;;;10.26;100.00
66430;BME280;53242;51.694;10.006;2023-10-19T10:11:49;97592.72;;;10.19;100.00
66430;BME280;53242;51.694;10.006;2023-10-19T10:14:23;97585.75;;;10.13;100.00
66430;BME280;53242;51.694;10.006;2023-10-19T10:16:46;97581.38;;;10.19;100.00
66430;BME280;53242;51.694;10.006;2023-10-19T10:19:09;97579.13;;;10.28;100.00
66430;BME280;53242;51.694;10.006;2023-10-19T10:21:32;97581.13;;;10.20;100.00
66430;BME280;53242;51.694;10.006;2023-10-19T10:24:03;97579.22;;;10.16;100.00
66430;BME280;53242;51.694;10.006;2023-10-19T10:26:30;97573.69;;;10.17;100.00
66430;BME280;53242;51.694;10.006;2023-10-19T10:29:17;97569.41;;;10.11;100.00
66430;BME280;53242;51.694;10.006;2023-10-19T10:31:44;97574.75;;;10.16;100.00
66430;BME280;53242;51.694;10.006;2023-10-19T10:34:11;97557.41;;;10.20;100.00
66430;BME280;53242;51.694;10.006;2023-10-19T10:37:08;97560.13;;;10.26;100.00
66430;BME280;53242;51.694;10.006;2023-10-19T10:39:31;97557.25;;;10.27;100.00
66430;BME280;53242;51.694;10.006;2023-10-19T10:42:02;97557.31;;;10.32;100.00
66430;BME280;53242;51.694;10.006;2023-10-19T10:44:44;97569.16;;;10.30;100.00
66430;BME280;53242;51.694;10.006;2023-10-19T10:47:08;97563.56;;;10.26;100.00
66430;BME280;53242;51.694;10.006;2023-10-19T10:49:30;97559.16;;;10.32;100.00
66430;BME280;53242;51.694;10.006;2023-10-19T10:51:54;97561.00;;;10.31;100.00
66430;BME280;53242;51.694;10.006;2023-10-19T10:54:21;97558.22;;;10.38;100.00
66430;BME280;53242;51.694;10.006;2023-10-19T10:56:43;97555.81;;;10.36;100.00
66430;BME280;53242;51.694;10.006;2023-10-19T10:59:13;97562.53;;;10.44;100.00
66430;BME280;53242;51.694;10.006;2023-10-19T11:01:35;97563.81;;;10.42;100.00
66430;BME280;53242;51.694;10.006;2023-10-19T11:04:10;97559.97;;;10.32;100.00
66430;BME280;53242;51.694;10.006;2023-10-19T11:06:33;97558.34;;;10.31;100.00
66430;BME280;53242;51.694;10.006;2023-10-19T11:09:10;97552.94;;;10.38;100.00
66430;BME280;53242;51.694;10.006;2023-10-19T11:11:37;97548.31;;;10.28;100.00
66430;BME280;53242;51.694;10.006;2023-10-19T11:14:09;97550.69;;;10.30;100.00
66430;BME280;53242;51.694;10.006;2023-10-19T11:16:31;97546.53;;;10.34;100.00
66430;BME280;53242;51.694;10.006;2023-10-19T11:18:53;97550.19;;;10.33;100.00
66430;BME280;53242;51.694;10.006;2023-10-19T11:21:16;97551.38;;;10.37;100.00
66430;BME280;53242;51.694;10.006;2023-10-19T11:23:45;97546.38;;;10.41;100.00
66430;BME280;53242;51.694;10.006;2023-10-19T11:26:10;97544.56;;;10.41;100.00
66430;BME280;53242;51.694;10.006;2023-10-19T11:28:33;97537.94;;;10.39;100.00
66430;BME280;53242;51.694;10.006;2023-10-19T11:31:17;97539.19;;;10.53;100.00
66430;BME280;53242;51.694;10.006;2023-10-19T11:33:40;97532.56;;;10.50;100.00
66430;BME280;53242;51.694;10.006;2023-10-19T11:36:05;97538.63;;;10.51;100.00
66430;BME280;53242;51.694;10.006;2023-10-19T11:38:27;97533.03;;;10.64;100.00
66430;BME280;53242;51.694;10.006;2023-10-19T11:40:50;97535.94;;;10.85;100.00
66430;BME280;53242;51.694;10.006;2023-10-19T11:43:13;97537.84;;;10.90;100.00
66430;BME280;53242;51.694;10.006;2023-10-19T11:45:35;97529.50;;;10.98;100.00
66430;BME280;53242;51.694;10.006;2023-10-19T11:47:58;97532.50;;;10.84;100.00
66430;BME280;53242;51.694;10.006;2023-10-19T11:50:20;97526.66;;;10.82;100.00
66430;BME280;53242;51.694;10.006;2023-10-19T11:52:43;97536.31;;;10.94;100.00
66430;BME280;53242;51.694;10.006;2023-10-19T11:55:05;97521.50;;;10.93;100.00
66430;BME280;53242;51.694;10.006;2023-10-19T11:57:28;97526.28;;;10.96;100.00
66430;BME280;53242;51.694;10.006;2023-10-19T11:59:51;97534.97;;;10.91;100.00
66430;BME280;53242;51.694;10.006;2023-10-19T12:02:16;97534.91;;;10.86;100.00
66430;BME280;53242;51.694;10.006;2023-10-19T12:04:40;97537.78;;;10.84;100.00
66430;BME280;53242;51.694;10.006;2023-10-19T12:07:03;97536.97;;;10.84;100.00
66430;BME280;53242;51.694;10.006;2023-10-19T12:09:26;97540.56;;;10.95;100.00
66430;BME280;53242;51.694;10.006;2023-10-19T12:11:48;97536.38;;;10.99;100.00
66430;BME280;53242;51.694;10.006;2023-10-19T12:14:11;97527.19;;;11.01;100.00
66430;BME280;53242;51.694;10.006;2023-10-19T12:16:37;97520.91;;;11.08;100.00
66430;BME280;53242;51.694;10.006;2023-10-19T12:19:01;97515.81;;;11.01;100.00
66430;BME280;53242;51.694;10.006;2023-10-19T12:21:25;97510.53;;;11.01;100.00
66430;BME280;53242;51.694;10.006;2023-10-19T12:23:49;97513.72;;;11.03;100.00
66430;BME280;53242;51.694;10.006;2023-10-19T12:26:17;97516.41;;;11.08;100.00
66430;BME280;53242;51.694;10.006;2023-10-19T12:28:40;97510.84;;;11.05;100.00
66430;BME280;53242;51.694;10.006;2023-10-19T12:31:03;97513.13;;;11.18;100.00
66430;BME280;53242;51.694;10.006;2023-10-19T12:33:27;97514.56;;;11.31;100.00
66430;BME280;53242;51.694;10.006;2023-10-19T12:35:50;97517.53;;;11.40;99.91
66430;BME280;53242;51.694;10.006;2023-10-19T12:38:22;97514.13;;;11.39;99.43
66430;BME280;53242;51.694;10.006;2023-10-19T12:40:48;97506.50;;;11.43;99.24